Time;durP1;ratioP1;P1;durP2;ratioP2;P2;SDS_P1;SDS_P2;PMS_P1;PMS_P2;Temp;Humidity;BMP_temperature;BMP_pressure;BME280_temperature;BME280_humidity;BME280_pressure;Samples;Min_cycle;Max_cycle;Signal;HPM_P1;HPM_P2
2023/01/11 00:00:59;;;;;;;1.00;0.90;;;;;;;9.49;57.48;99809.94;5048823;28;20712;-81
2023/01/11 00:03:25;;;;;;;1.10;0.80;;;;;;;9.51;57.83;99805.44;5056601;28;20691;-81
2023/01/11 00:05:55;;;;;;;2.33;1.27;;;;;;;9.56;57.53;99809.56;5056065;28;20419;-82
2023/01/11 00:08:21;;;;;;;1.80;0.85;;;;;;;9.58;57.77;99805.09;5053325;28;20243;-82
2023/01/11 00:10:46;;;;;;;1.00;0.90;;;;;;;9.58;58.28;99805.94;5055240;28;20225;-82
2023/01/11 00:13:13;;;;;;;0.80;0.80;;;;;;;9.59;58.09;99798.94;5055014;28;20244;-82
2023/01/11 00:15:39;;;;;;;1.52;0.90;;;;;;;9.59;58.15;99797.16;5055136;28;20226;-82
2023/01/11 00:18:04;;;;;;;2.55;1.20;;;;;;;9.59;58.32;99786.66;5052903;28;20197;-82
2023/01/11 00:20:30;;;;;;;1.43;1.10;;;;;;;9.59;58.54;99785.84;5055292;28;20220;-82
2023/01/11 00:22:56;;;;;;;1.67;1.53;;;;;;;9.59;58.57;99772.72;5037025;28;20308;-82
2023/01/11 00:25:21;;;;;;;1.73;0.97;;;;;;;9.60;58.81;99771.78;5054836;28;20489;-82
2023/01/11 00:27:48;;;;;;;1.20;0.90;;;;;;;9.61;59.32;99770.81;5055844;28;20330;-82
2023/01/11 00:30:14;;;;;;;2.75;0.90;;;;;;;9.64;59.23;99775.91;5032782;28;20247;-83
2023/01/11 00:32:40;;;;;;;1.17;1.00;;;;;;;9.66;59.39;99772.25;5035259;28;20290;-83
2023/01/11 00:35:06;;;;;;;1.17;0.80;;;;;;;9.67;59.58;99781.00;5035123;28;20254;-83
2023/01/11 00:37:31;;;;;;;1.23;0.90;;;;;;;9.69;59.37;99781.72;5036990;28;20285;-83
2023/01/11 00:39:57;;;;;;;1.17;0.90;;;;;;;9.71;59.60;99772.84;5036651;28;20213;-82
2023/01/11 00:47:56;;;;;;;1.27;0.93;;;;;;;9.75;60.48;99758.63;5056163;28;20193;-82
2023/01/11 00:50:22;;;;;;;1.15;0.95;;;;;;;9.78;60.60;99749.75;5049220;28;20217;-82
2023/01/11 00:52:48;;;;;;;1.40;0.80;;;;;;;9.81;60.93;99746.09;5034338;28;20233;-83
2023/01/11 00:55:14;;;;;;;1.10;0.77;;;;;;;9.81;61.34;99744.31;5033160;28;20333;-81
2023/01/11 00:57:39;;;;;;;1.13;1.03;;;;;;;9.84;61.19;99738.88;5034460;28;20424;-83
2023/01/11 01:00:05;;;;;;;3.00;0.90;;;;;;;9.85;61.15;99742.34;5038207;28;20242;-82
2023/01/11 01:02:31;;;;;;;0.70;0.70;;;;;;;9.87;61.09;99717.72;5038109;28;20189;-82
2023/01/11 01:04:57;;;;;;;1.73;0.80;;;;;;;9.88;61.01;99726.41;5055441;28;20232;-83
2023/01/11 01:07:22;;;;;;;2.00;0.93;;;;;;;9.90;60.96;99717.53;5037622;28;20785;-83
2023/01/11 01:09:54;;;;;;;2.10;1.13;;;;;;;9.91;60.82;99718.34;5054631;28;20784;-82
2023/01/11 01:15:04;;;;;;;3.05;1.10;;;;;;;9.91;61.24;99724.47;5037748;28;20577;-83
2023/01/11 01:17:29;;;;;;;1.00;0.70;;;;;;;9.86;61.67;99710.78;5052584;28;20186;-82
2023/01/11 01:19:54;;;;;;;1.63;0.83;;;;;;;9.88;61.72;99716.78;5052781;28;20198;-83
2023/01/11 01:22:20;;;;;;;0.93;0.83;;;;;;;9.87;62.22;99717.72;5033596;28;20532;-82
2023/01/11 01:24:45;;;;;;;1.37;0.80;;;;;;;9.90;62.23;99714.91;5035300;28;20225;-83
2023/01/11 01:27:16;;;;;;;2.10;0.80;;;;;;;9.91;62.48;99708.72;5033057;28;20259;-82
2023/01/11 01:29:42;;;;;;;1.27;0.90;;;;;;;9.93;62.53;99711.25;5034497;28;20222;-83
2023/01/11 01:32:08;;;;;;;1.55;1.10;;;;;;;9.94;62.79;99705.91;5035803;28;20202;-83
2023/01/11 01:34:36;;;;;;;1.90;1.03;;;;;;;10.00;62.88;99715.22;5037437;28;20247;-82
2023/01/11 01:37:06;;;;;;;1.05;0.80;;;;;;;10.03;62.84;99708.94;5041600;28;20187;-84
2023/01/11 01:39:32;;;;;;;0.88;0.80;;;;;;;10.06;63.24;99711.38;5037827;28;20235;-83
2023/01/11 01:41:58;;;;;;;1.10;0.80;;;;;;;10.06;63.18;99714.84;5036272;28;20199;-83
2023/01/11 01:44:48;;;;;;;0.90;0.80;;;;;;;10.10;63.60;99718.97;5035778;28;20208;-83
2023/01/11 01:47:14;;;;;;;1.20;0.80;;;;;;;10.13;63.48;99700.41;5036682;28;20518;-83
2023/01/11 01:49:42;;;;;;;1.10;0.80;;;;;;;10.17;63.78;99706.31;5038279;28;20724;-82
2023/01/11 01:52:09;;;;;;;1.80;0.80;;;;;;;10.18;64.01;99708.03;5044210;28;20246;-84
2023/01/11 01:54:41;;;;;;;1.35;0.80;;;;;;;10.24;63.99;99709.44;5040321;28;20325;-82
2023/01/11 01:57:19;;;;;;;1.55;0.70;;;;;;;10.25;64.43;99714.56;5040750;28;20854;-86
2023/01/11 01:59:50;;;;;;;1.08;0.80;;;;;;;10.29;64.62;99708.25;5040023;28;20225;-83
2023/01/11 02:02:18;;;;;;;2.05;0.77;;;;;;;10.33;64.64;99701.84;5041259;28;20680;-83
2023/01/11 02:04:47;;;;;;;1.35;0.65;;;;;;;10.39;64.87;99708.50;5060015;28;20566;-84
2023/01/11 02:07:25;;;;;;;1.35;0.70;;;;;;;10.46;65.07;99714.25;5058614;28;20202;-85
2023/01/11 02:10:12;;;;;;;1.00;0.90;;;;;;;10.52;65.02;99705.97;5058234;28;20300;-83
2023/01/11 02:12:46;;;;;;;1.15;0.60;;;;;;;10.57;64.88;99699.50;5060210;28;20207;-85
2023/01/11 02:15:12;;;;;;;2.75;0.80;;;;;;;10.62;64.97;99705.31;5059283;28;20246;-83
2023/01/11 02:17:38;;;;;;;0.85;0.80;;;;;;;10.68;64.82;99703.25;5048173;28;20207;-84
2023/01/11 02:20:18;;;;;;;0.80;0.70;;;;;;;10.70;64.88;99691.72;5038650;28;20578;-85
2023/01/11 02:23:18;;;;;;;0.77;0.60;;;;;;;10.76;64.71;99690.47;4687573;28;9999980;-86
2023/01/11 02:26:02;;;;;;;0.80;0.60;;;;;;;10.77;64.90;99700.88;5021761;28;20198;-83
2023/01/11 02:28:32;;;;;;;0.95;0.60;;;;;;;10.80;64.92;99691.94;5040958;28;20248;-83
2023/01/11 02:31:25;;;;;;;1.67;0.85;;;;;;;10.84;64.75;99691.66;5040712;28;20225;-82
2023/01/11 02:34:11;;;;;;;1.02;0.90;;;;;;;10.84;64.80;99682.94;5042448;28;20618;-86
2023/01/11 02:37:09;;;;;;;0.70;0.65;;;;;;;10.90;64.79;99676.44;5038066;28;20730;-87
2023/01/11 02:39:49;;;;;;;0.95;0.60;;;;;;;10.95;64.62;99672.59;5016047;28;20240;-83
2023/01/11 02:45:46;;;;;;;0.80;0.70;;;;;;;11.04;64.46;99669.38;5035740;28;20338;-84
2023/01/11 02:48:33;;;;;;;1.60;0.70;;;;;;;11.10;64.25;99664.66;5037120;28;20204;-83
2023/01/11 02:51:04;;;;;;;0.80;0.65;;;;;;;11.12;64.25;99657.50;5038380;28;20224;-83
2023/01/11 02:53:52;;;;;;;0.80;0.60;;;;;;;11.13;64.18;99664.47;5038077;28;20200;-84
2023/01/11 02:56:35;;;;;;;1.15;0.82;;;;;;;11.16;64.08;99659.84;5036950;28;20256;-86
2023/01/11 02:59:02;;;;;;;0.82;0.60;;;;;;;11.17;64.19;99656.28;5036803;28;20238;-83
2023/01/11 03:01:27;;;;;;;1.50;0.70;;;;;;;11.21;63.88;99657.78;5052808;28;20180;-83
2023/01/11 03:04:01;;;;;;;0.87;0.63;;;;;;;11.23;63.80;99650.63;5064797;28;20194;-82
2023/01/11 03:06:32;;;;;;;0.90;0.70;;;;;;;11.23;63.77;99648.00;5056818;28;20207;-85
2023/01/11 03:09:13;;;;;;;0.85;0.60;;;;;;;11.26;63.92;99649.56;5060023;28;20536;-82
2023/01/11 03:15:20;;;;;;;0.80;0.77;;;;;;;11.26;63.87;99649.56;5060579;28;20200;-84
2023/01/11 03:17:51;;;;;;;1.88;0.60;;;;;;;11.28;63.71;99647.69;5059056;28;20258;-85
2023/01/11 03:20:26;;;;;;;1.00;0.80;;;;;;;11.32;63.66;99645.72;5058874;28;20250;-83
2023/01/11 03:23:05;;;;;;;0.80;0.60;;;;;;;11.34;63.63;99651.69;5057022;28;20202;-83
2023/01/11 03:26:02;;;;;;;0.60;0.50;;;;;;;11.38;63.48;99642.66;5059612;28;20221;-82
2023/01/11 03:28:46;;;;;;;0.90;0.50;;;;;;;11.41;63.43;99640.66;5021944;28;20202;-82
2023/01/11 03:31:24;;;;;;;1.00;0.60;;;;;;;11.42;63.27;99641.50;5044842;28;20239;-82
2023/01/11 03:34:27;;;;;;;1.30;0.60;;;;;;;11.41;63.31;99640.66;5034308;28;20172;-82
2023/01/11 03:37:12;;;;;;;0.70;0.60;;;;;;;11.42;63.21;99642.38;5021201;28;20219;-83
2023/01/11 03:39:49;;;;;;;0.70;0.50;;;;;;;11.43;63.12;99644.03;5038801;28;20194;-84
2023/01/11 03:42:20;;;;;;;0.88;0.60;;;;;;;11.44;63.13;99642.25;5039208;28;20674;-82
2023/01/11 03:44:52;;;;;;;1.55;0.55;;;;;;;11.44;63.10;99644.88;5039983;28;20211;-84
2023/01/11 03:47:22;;;;;;;1.77;0.73;;;;;;;11.43;63.06;99649.31;5037881;28;20223;-82
2023/01/11 03:49:52;;;;;;;1.00;0.70;;;;;;;11.42;63.08;99647.63;5038328;28;20211;-82
2023/01/11 03:52:24;;;;;;;0.73;0.65;;;;;;;11.40;63.07;99656.56;5057473;28;20201;-85
2023/01/11 03:54:52;;;;;;;0.70;0.60;;;;;;;11.40;63.09;99651.31;5059055;28;20182;-82
2023/01/11 03:57:22;;;;;;;1.30;0.70;;;;;;;11.40;62.92;99651.31;5052733;28;20601;-84
2023/01/11 03:59:48;;;;;;;2.30;0.70;;;;;;;11.38;62.99;99658.44;5047166;28;20542;-83
2023/01/11 04:02:20;;;;;;;0.80;0.60;;;;;;;11.36;63.26;99662.94;5032174;28;20187;-83
2023/01/11 04:04:46;;;;;;;0.70;0.60;;;;;;;11.35;63.46;99661.28;5046200;28;20913;-83
2023/01/11 04:07:12;;;;;;;1.73;0.63;;;;;;;11.32;63.54;99659.69;5023903;28;20226;-83
2023/01/11 04:09:37;;;;;;;0.70;0.70;;;;;;;11.27;64.35;99644.22;5048148;28;20479;-83
2023/01/11 04:12:03;;;;;;;0.77;0.60;;;;;;;11.22;64.66;99642.84;5051596;28;20425;-82
2023/01/11 04:14:28;;;;;;;0.70;0.60;;;;;;;11.15;65.63;99639.78;5055180;28;20197;-82
2023/01/11 04:16:54;;;;;;;1.47;0.70;;;;;;;11.12;65.80;99645.22;5054812;28;20219;-83
2023/01/11 04:19:19;;;;;;;1.30;0.80;;;;;;;11.09;65.76;99640.16;5047996;28;20192;-83
2023/01/11 04:21:44;;;;;;;0.73;0.70;;;;;;;11.06;66.13;99643.81;5031062;28;20246;-83
2023/01/11 04:24:12;;;;;;;2.73;0.60;;;;;;;11.03;66.24;99630.88;5029489;28;20205;-83
2023/01/11 04:26:38;;;;;;;0.82;0.70;;;;;;;11.02;66.29;99631.84;5028786;28;20781;-83
2023/01/11 04:29:04;;;;;;;1.30;0.90;;;;;;;10.99;66.39;99629.41;5025637;28;20184;-83
2023/01/11 04:31:29;;;;;;;2.97;1.53;;;;;;;10.98;66.84;99634.75;5043049;28;20235;-84
2023/01/11 04:33:54;;;;;;;4.05;2.47;;;;;;;10.96;66.85;99626.97;5046861;28;20427;-83
2023/01/11 04:36:20;;;;;;;4.30;1.93;;;;;;;10.95;67.01;99622.66;5047137;28;20257;-83
2023/01/11 04:38:45;;;;;;;2.90;2.40;;;;;;;10.93;67.33;99621.06;5046962;28;20177;-83
2023/01/11 04:43:55;;;;;;;1.05;0.80;;;;;;;10.90;67.38;99616.00;5027699;28;20176;-83
2023/01/11 04:46:22;;;;;;;3.30;2.97;;;;;;;10.91;67.67;99620.31;5027748;28;20185;-83
2023/01/11 04:48:47;;;;;;;9.25;4.93;;;;;;;10.88;67.73;99620.53;5027403;28;20426;-83
2023/01/11 04:51:13;;;;;;;2.30;1.97;;;;;;;10.82;67.80;99609.47;5040191;28;20257;-82
2023/01/11 04:53:38;;;;;;;2.20;1.53;;;;;;;10.83;67.99;99608.53;5046999;28;20178;-83
2023/01/11 04:56:06;;;;;;;1.30;1.00;;;;;;;10.80;68.37;99608.75;5046515;28;20223;-83
2023/01/11 04:58:33;;;;;;;1.52;1.10;;;;;;;10.75;68.73;99608.19;5048083;28;20183;-83
2023/01/11 05:00:58;;;;;;;1.25;1.00;;;;;;;10.72;68.67;99597.00;5036334;28;20214;-83
2023/01/11 05:03:24;;;;;;;1.00;0.80;;;;;;;10.71;68.80;99609.31;5026224;28;20183;-83
2023/01/11 05:06:00;;;;;;;1.37;0.97;;;;;;;10.66;69.01;99603.50;5027549;28;20198;-84
2023/01/11 05:08:27;;;;;;;1.25;0.80;;;;;;;10.67;69.17;99596.50;5027052;28;20186;-82
2023/01/11 05:10:53;;;;;;;0.80;0.80;;;;;;;10.64;69.26;99594.91;5037623;28;20208;-82
2023/01/11 05:13:19;;;;;;;1.45;1.00;;;;;;;10.61;69.44;99592.44;5032132;28;20692;-82
2023/01/11 05:15:44;;;;;;;0.90;0.90;;;;;;;10.63;69.38;99593.19;5041327;28;20199;-83
2023/01/11 05:18:10;;;;;;;0.80;0.80;;;;;;;10.61;69.64;99584.56;5038270;28;20418;-82
2023/01/11 05:20:53;;;;;;;1.38;1.15;;;;;;;10.64;69.21;99584.41;5041314;28;20188;-83
2023/01/11 05:23:20;;;;;;;2.30;1.30;;;;;;;10.63;69.51;99591.41;5050256;28;20670;-83
2023/01/11 05:25:45;;;;;;;0.70;0.70;;;;;;;10.64;69.59;99594.91;5041819;28;20235;-85
2023/01/11 05:28:11;;;;;;;1.40;1.10;;;;;;;10.65;69.43;99585.25;5044899;28;20209;-83
2023/01/11 05:30:36;;;;;;;1.10;1.00;;;;;;;10.65;69.14;99583.44;5041449;28;20197;-84
2023/01/11 05:33:03;;;;;;;3.10;0.90;;;;;;;10.64;69.61;99581.78;5034441;28;20563;-83
2023/01/11 05:35:28;;;;;;;1.30;0.80;;;;;;;10.62;69.54;99575.75;5044351;28;20280;-82
2023/01/11 05:37:54;;;;;;;0.70;0.70;;;;;;;10.62;69.54;99579.22;5040117;28;20274;-83
2023/01/11 05:40:19;;;;;;;0.80;0.70;;;;;;;10.59;69.50;99566.31;5045215;28;20261;-83
2023/01/11 05:42:45;;;;;;;1.07;0.70;;;;;;;10.59;69.55;99565.47;5046057;28;20175;-83
2023/01/11 05:48:05;;;;;;;0.80;0.70;;;;;;;10.51;69.67;99565.94;5035588;28;20207;-82
2023/01/11 05:50:31;;;;;;;1.90;0.80;;;;;;;10.50;69.96;99560.78;5018702;28;20212;-82
2023/01/11 05:52:57;;;;;;;1.10;0.60;;;;;;;10.47;70.11;99553.94;5047645;28;20209;-83
2023/01/11 05:55:22;;;;;;;0.80;0.80;;;;;;;10.49;69.95;99552.06;5037070;28;20224;-83
2023/01/11 05:57:49;;;;;;;0.90;0.63;;;;;;;10.50;70.09;99550.28;5036888;28;20291;-82
2023/01/11 06:00:15;;;;;;;1.00;0.70;;;;;;;10.52;70.09;99551.88;5043569;28;20173;-82
2023/01/11 06:02:40;;;;;;;1.00;0.73;;;;;;;10.51;70.14;99549.34;5030283;28;20194;-83
2023/01/11 06:05:07;;;;;;;1.60;0.97;;;;;;;10.56;70.29;99547.28;5031914;28;20500;-82
2023/01/11 06:07:32;;;;;;;0.80;0.70;;;;;;;10.58;70.71;99545.38;5044823;28;20195;-82
2023/01/11 06:09:57;;;;;;;0.80;0.80;;;;;;;10.58;70.75;99538.31;5034519;28;20210;-82
2023/01/11 06:12:23;;;;;;;3.30;1.93;;;;;;;10.59;70.83;99528.69;5040312;28;20190;-82
2023/01/11 06:14:48;;;;;;;2.33;1.10;;;;;;;10.61;70.82;99529.41;5035513;28;20184;-84
2023/01/11 06:17:14;;;;;;;1.20;0.80;;;;;;;10.58;70.60;99522.56;5031115;28;20233;-82
2023/01/11 06:19:39;;;;;;;1.07;0.70;;;;;;;10.54;70.66;99526.34;5045053;28;20190;-82
2023/01/11 06:22:05;;;;;;;1.80;0.83;;;;;;;10.49;70.82;99523.19;5049619;28;20176;-81
2023/01/11 06:24:30;;;;;;;1.13;0.93;;;;;;;10.49;70.61;99530.22;5037207;28;20289;-81
2023/01/11 06:26:55;;;;;;;0.80;0.60;;;;;;;10.48;70.72;99531.16;5029190;28;20318;-81
2023/01/11 06:29:21;;;;;;;1.10;0.70;;;;;;;10.48;70.52;99532.00;5046458;28;20187;-81
2023/01/11 06:31:47;;;;;;;1.27;1.10;;;;;;;10.47;70.40;99527.69;5030098;28;20632;-82
2023/01/11 06:34:12;;;;;;;1.77;0.87;;;;;;;10.50;70.16;99534.53;5049446;28;20237;-81
2023/01/11 06:36:38;;;;;;;1.33;0.70;;;;;;;10.48;70.59;99531.16;5036383;28;20485;-84
2023/01/11 06:39:04;;;;;;;0.83;0.70;;;;;;;10.51;70.49;99515.22;5035236;28;20218;-82
2023/01/11 06:41:30;;;;;;;1.45;1.00;;;;;;;10.54;70.16;99510.59;5037498;28;20435;-82
2023/01/11 06:43:55;;;;;;;1.05;0.93;;;;;;;10.59;70.00;99500.63;5029712;28;20374;-83
2023/01/11 06:46:21;;;;;;;1.37;1.10;;;;;;;10.58;70.05;99500.72;5024076;28;20715;-82
2023/01/11 06:48:47;;;;;;;2.47;1.43;;;;;;;10.60;69.81;99490.97;5036672;28;20615;-82
2023/01/11 06:51:14;;;;;;;1.00;0.90;;;;;;;10.63;69.76;99502.09;5041654;28;20211;-84
2023/01/11 06:53:41;;;;;;;1.10;0.90;;;;;;;10.65;69.58;99499.38;5026115;28;20266;-82
2023/01/11 06:56:11;;;;;;;1.25;1.05;;;;;;;10.67;69.46;99505.38;5031283;28;20238;-81
2023/01/11 06:58:37;;;;;;;2.05;1.10;;;;;;;10.70;69.49;99499.94;5029636;28;20579;-81
2023/01/11 07:01:02;;;;;;;1.47;1.07;;;;;;;10.72;69.40;99500.69;5039390;28;20183;-81
2023/01/11 07:03:27;;;;;;;2.30;0.90;;;;;;;10.76;69.21;99494.25;5047213;28;21181;-82
2023/01/11 07:05:55;;;;;;;1.00;0.77;;;;;;;10.78;69.03;99496.81;5040890;28;20564;-81
2023/01/11 07:08:21;;;;;;;1.50;0.63;;;;;;;10.78;69.15;99502.91;5031044;28;20194;-82
2023/01/11 07:10:47;;;;;;;0.80;0.70;;;;;;;10.79;68.88;99494.06;5025720;28;20498;-82
2023/01/11 07:13:16;;;;;;;1.43;0.90;;;;;;;10.81;68.88;99492.19;5044361;28;20188;-81
2023/01/11 07:15:43;;;;;;;1.13;0.80;;;;;;;10.84;68.58;99491.13;5043575;28;20206;-83
2023/01/11 07:18:10;;;;;;;1.17;0.70;;;;;;;10.85;68.33;99482.28;5027379;28;20229;-83
2023/01/11 07:20:35;;;;;;;1.00;0.80;;;;;;;10.84;68.41;99481.47;5043720;28;20192;-81
2023/01/11 07:23:01;;;;;;;1.50;1.10;;;;;;;10.89;68.15;99493.47;5025296;28;20243;-83
2023/01/11 07:25:28;;;;;;;1.80;1.13;;;;;;;10.91;67.92;99486.28;5029178;28;20258;-82
2023/01/11 07:27:58;;;;;;;1.33;0.80;;;;;;;10.96;67.77;99484.22;5041260;28;20194;-84
2023/01/11 07:30:24;;;;;;;0.70;0.70;;;;;;;10.97;67.70;99492.00;5042235;28;20210;-81
2023/01/11 07:32:50;;;;;;;1.00;0.70;;;;;;;11.01;67.63;99487.38;5043483;28;20618;-82
2023/01/11 07:35:15;;;;;;;1.10;1.00;;;;;;;11.02;67.40;99483.81;5033024;28;20228;-82
2023/01/11 07:37:40;;;;;;;1.20;0.80;;;;;;;11.06;67.22;99494.00;5022720;28;20187;-82
2023/01/11 07:40:06;;;;;;;2.10;0.90;;;;;;;11.11;67.04;99484.97;5038184;28;20239;-82
2023/01/11 07:45:16;;;;;;;0.90;0.70;;;;;;;11.21;66.81;99484.25;5033610;28;20211;-83
2023/01/11 07:47:42;;;;;;;0.70;0.60;;;;;;;11.27;66.67;99491.69;5037028;28;20188;-82
2023/01/11 07:50:07;;;;;;;1.10;0.80;;;;;;;11.34;66.34;99504.44;5028678;28;20214;-81
2023/01/11 07:52:33;;;;;;;0.80;0.80;;;;;;;11.38;66.25;99498.84;5021309;28;20691;-82
2023/01/11 07:55:01;;;;;;;1.37;0.60;;;;;;;11.41;66.20;99495.19;5023178;28;20214;-82
2023/01/11 07:57:28;;;;;;;0.80;0.80;;;;;;;11.49;65.60;99490.22;5023982;28;20406;-82
2023/01/11 07:59:53;;;;;;;1.00;0.88;;;;;;;11.49;65.62;99488.44;5023794;28;20170;-83
2023/01/11 08:02:19;;;;;;;2.50;1.00;;;;;;;11.57;65.34;99481.81;5023281;28;20167;-81
2023/01/11 08:04:44;;;;;;;0.97;0.80;;;;;;;11.58;65.33;99472.97;5024426;28;20175;-80
2023/01/11 08:07:09;;;;;;;1.47;0.80;;;;;;;11.63;65.05;99482.22;5023226;28;20179;-82
2023/01/11 08:09:35;;;;;;;2.10;0.83;;;;;;;11.64;64.90;99468.13;5023708;28;20241;-82
2023/01/11 08:14:44;;;;;;;1.48;0.70;;;;;;;11.65;65.19;99471.59;4992536;28;20257;-82
2023/01/11 08:17:13;;;;;;;0.90;0.70;;;;;;;11.72;65.12;99478.94;5002940;28;20749;-82
2023/01/11 08:19:39;;;;;;;0.75;0.60;;;;;;;11.78;64.83;99475.03;5002971;28;20175;-81
2023/01/11 08:22:05;;;;;;;1.50;0.80;;;;;;;11.81;64.58;99473.97;4999482;28;20237;-84
2023/01/11 08:24:30;;;;;;;1.07;0.60;;;;;;;11.88;64.62;99473.47;5002132;28;20234;-82
2023/01/11 08:26:56;;;;;;;1.00;0.60;;;;;;;11.94;64.33;99473.03;5004132;28;20199;-83
2023/01/11 08:29:23;;;;;;;0.80;0.60;;;;;;;12.04;64.09;99469.72;5003042;28;20183;-82
2023/01/11 08:31:48;;;;;;;0.70;0.70;;;;;;;12.11;63.84;99484.13;4985860;28;20263;-82
2023/01/11 08:34:14;;;;;;;3.73;0.93;;;;;;;12.18;63.70;99491.50;4984208;28;20168;-83
2023/01/11 08:36:39;;;;;;;1.37;0.90;;;;;;;12.25;63.59;99480.50;4983154;28;20219;-82
2023/01/11 08:39:05;;;;;;;1.20;0.70;;;;;;;12.27;63.65;99479.44;4983963;28;20180;-83
2023/01/11 08:41:33;;;;;;;1.77;0.70;;;;;;;12.29;63.59;99466.19;4983106;28;20164;-82
2023/01/11 08:43:59;;;;;;;1.13;0.80;;;;;;;12.34;63.53;99477.19;4982058;28;20180;-81
2023/01/11 08:46:25;;;;;;;1.00;0.90;;;;;;;12.39;63.36;99491.75;4983950;28;20242;-83
2023/01/11 08:48:52;;;;;;;0.70;0.60;;;;;;;12.39;63.50;99483.84;4987641;28;20195;-82
2023/01/11 08:51:18;;;;;;;1.00;0.70;;;;;;;12.43;63.39;99488.88;4989843;28;20215;-82
2023/01/11 08:53:44;;;;;;;2.20;0.95;;;;;;;12.45;63.59;99489.56;4966261;28;20234;-82
2023/01/11 08:56:10;;;;;;;0.90;0.70;;;;;;;12.49;63.41;99491.06;4983055;28;20227;-82
2023/01/11 08:58:36;;;;;;;0.80;0.70;;;;;;;12.51;63.42;99483.88;4983651;28;20230;-83
2023/01/11 09:01:03;;;;;;;1.13;0.80;;;;;;;12.55;63.23;99477.41;4993542;28;20532;-80
2023/01/11 09:03:31;;;;;;;0.70;0.70;;;;;;;12.55;63.33;99478.25;5003074;28;20456;-81
2023/01/11 09:05:56;;;;;;;0.70;0.60;;;;;;;12.56;63.22;99474.69;5003977;28;20210;-81
2023/01/11 09:08:23;;;;;;;0.80;0.80;;;;;;;12.60;63.09;99486.66;5002394;28;20175;-84
2023/01/11 09:10:49;;;;;;;0.60;0.55;;;;;;;12.63;63.07;99483.78;4993526;28;20223;-82
2023/01/11 09:13:14;;;;;;;1.40;0.70;;;;;;;12.62;62.98;99484.75;4983143;28;20549;-84
2023/01/11 09:15:39;;;;;;;0.80;0.60;;;;;;;12.69;62.81;99490.44;4982413;28;20199;-82
2023/01/11 09:18:05;;;;;;;0.70;0.60;;;;;;;12.71;62.68;99495.56;4990779;28;20171;-84
2023/01/11 09:20:31;;;;;;;1.13;0.60;;;;;;;12.74;62.60;99495.34;4995399;28;20369;-84
2023/01/11 09:22:56;;;;;;;1.57;0.77;;;;;;;12.78;62.45;99487.09;4981469;28;20191;-82
2023/01/11 09:25:22;;;;;;;0.90;0.63;;;;;;;12.77;62.31;99503.88;4982571;28;20215;-84
2023/01/11 09:27:51;;;;;;;0.80;0.70;;;;;;;12.78;62.36;99496.81;4981163;28;20192;-83
2023/01/11 09:30:19;;;;;;;0.70;0.60;;;;;;;12.79;62.31;99504.59;4983279;28;20280;-82
2023/01/11 09:32:45;;;;;;;0.73;0.60;;;;;;;12.77;62.34;99513.56;4999534;28;20184;-83
2023/01/11 09:35:11;;;;;;;0.70;0.60;;;;;;;12.79;62.22;99509.03;4982601;28;20216;-84
2023/01/11 09:37:40;;;;;;;1.60;1.10;;;;;;;12.81;62.27;99509.75;4983845;28;20695;-82
2023/01/11 09:40:12;;;;;;;1.00;0.80;;;;;;;12.82;62.25;99516.69;4986056;28;20229;-83
2023/01/11 09:42:38;;;;;;;1.65;1.05;;;;;;;12.84;62.17;99515.63;5002187;28;20256;-84
2023/01/11 09:45:13;;;;;;;0.70;0.65;;;;;;;12.86;62.07;99517.31;5002829;28;20620;-84
2023/01/11 09:47:44;;;;;;;0.70;0.50;;;;;;;12.83;62.10;99521.03;4985491;28;20631;-83
2023/01/11 09:50:16;;;;;;;0.80;0.60;;;;;;;12.81;62.12;99517.66;5002243;28;20710;-85
2023/01/11 09:52:45;;;;;;;0.98;0.70;;;;;;;12.80;62.20;99519.47;5002303;28;20179;-84
2023/01/11 09:55:20;;;;;;;0.70;0.60;;;;;;;12.81;62.21;99515.88;5002802;28;20261;-82
2023/01/11 09:57:50;;;;;;;0.75;0.50;;;;;;;12.83;62.31;99515.75;5017373;28;20187;-84
2023/01/11 10:00:34;;;;;;;1.50;1.10;;;;;;;12.83;62.48;99519.22;5018298;28;20187;-84
2023/01/11 10:03:15;;;;;;;1.13;1.02;;;;;;;12.79;62.84;99520.41;5000935;28;20187;-84
2023/01/11 10:05:59;;;;;;;0.70;0.60;;;;;;;12.81;63.15;99512.38;5017904;28;20230;-84
2023/01/11 10:08:45;;;;;;;0.60;0.60;;;;;;;12.78;63.25;99524.00;5018493;28;20187;-84
2023/01/11 10:11:30;;;;;;;0.60;0.60;;;;;;;12.77;63.44;99516.19;5003827;28;20208;-84
2023/01/11 10:14:25;;;;;;;0.77;0.65;;;;;;;12.73;63.83;99517.38;4997175;28;20259;-84
2023/01/11 10:17:04;;;;;;;0.82;0.82;;;;;;;12.70;64.29;99513.19;4978916;28;20254;-84
2023/01/11 10:19:44;;;;;;;1.20;0.90;;;;;;;12.69;64.97;99514.16;5015323;28;20270;-84
2023/01/11 10:22:22;;;;;;;2.92;1.00;;;;;;;12.65;65.09;99501.31;4996340;28;20180;-83
2023/01/11 10:24:56;;;;;;;1.20;0.93;;;;;;;12.61;65.40;99496.25;4996930;28;20183;-83
2023/01/11 10:27:39;;;;;;;1.88;0.80;;;;;;;12.57;65.76;99497.44;4997236;28;20235;-83
2023/01/11 10:33:12;;;;;;;1.50;0.80;;;;;;;12.48;66.49;99492.00;4995718;28;20238;-84
2023/01/11 10:36:01;;;;;;;0.80;0.70;;;;;;;12.49;66.57;99497.16;4996146;28;20203;-84
2023/01/11 10:42:06;;;;;;;1.00;0.75;;;;;;;12.47;67.05;99493.78;4990365;28;20196;-83
2023/01/11 10:44:37;;;;;;;1.52;1.08;;;;;;;12.46;67.21;99489.47;4995867;28;20191;-83
2023/01/11 10:47:12;;;;;;;0.80;0.70;;;;;;;12.44;67.52;99491.38;4996047;28;20198;-84
2023/01/11 10:50:03;;;;;;;0.60;0.60;;;;;;;12.40;67.78;99480.22;4994074;28;20657;-84
2023/01/11 10:52:33;;;;;;;1.13;1.00;;;;;;;12.45;67.68;99482.53;4996360;28;20459;-84
2023/01/11 10:55:11;;;;;;;0.82;0.70;;;;;;;12.47;67.70;99495.59;4983748;28;20218;-84
2023/01/11 10:58:01;;;;;;;1.00;0.80;;;;;;;12.49;67.72;99483.97;4970738;28;20283;-84
2023/01/11 11:00:42;;;;;;;1.15;0.70;;;;;;;12.48;67.76;99492.00;4994335;28;20187;-84
2023/01/11 11:03:29;;;;;;;0.90;0.80;;;;;;;12.48;67.80;99484.94;4996227;28;20522;-84
2023/01/11 11:06:11;;;;;;;1.00;0.77;;;;;;;12.47;67.79;99491.16;4995351;28;20552;-84
2023/01/11 11:09:14;;;;;;;1.98;1.30;;;;;;;12.52;67.98;99490.81;4992192;28;20628;-85
2023/01/11 11:11:51;;;;;;;0.73;0.70;;;;;;;12.51;68.25;99497.88;4999225;28;20230;-84
2023/01/11 11:14:58;;;;;;;0.80;0.80;;;;;;;12.50;68.33;99484.81;5011665;28;20389;-84
2023/01/11 11:17:33;;;;;;;1.95;0.95;;;;;;;12.47;68.53;99485.88;4988146;28;20667;-84
2023/01/11 11:19:59;;;;;;;1.80;1.00;;;;;;;12.45;68.75;99497.47;5007220;28;20178;-84
2023/01/11 11:22:25;;;;;;;0.70;0.67;;;;;;;12.45;69.08;99482.53;5005512;28;20183;-84
2023/01/11 11:25:32;;;;;;;1.10;0.80;;;;;;;12.38;69.29;99492.66;5006628;28;20434;-84
2023/01/11 11:28:25;;;;;;;0.90;0.70;;;;;;;12.38;69.30;99490.03;5003370;28;20187;-84
2023/01/11 11:30:54;;;;;;;1.67;0.90;;;;;;;12.38;69.35;99495.31;5004896;28;20234;-84
2023/01/11 11:33:22;;;;;;;2.03;0.80;;;;;;;12.38;69.84;99495.31;5006218;28;20518;-84
2023/01/11 11:36:03;;;;;;;1.58;1.17;;;;;;;12.36;70.22;99504.25;5007781;28;20200;-84
2023/01/11 11:38:32;;;;;;;1.23;1.13;;;;;;;12.32;70.58;99500.19;4990997;28;20187;-84
2023/01/11 11:41:18;;;;;;;1.95;1.30;;;;;;;12.27;70.91;99505.78;4998856;28;20187;-84
2023/01/11 11:43:45;;;;;;;1.17;0.80;;;;;;;12.22;71.66;99502.63;5009836;28;20179;-83
2023/01/11 11:46:14;;;;;;;2.55;1.40;;;;;;;12.17;72.06;99510.03;5007224;28;20842;-83
2023/01/11 11:48:41;;;;;;;1.65;1.02;;;;;;;12.12;72.58;99510.38;5008770;28;20199;-83
2023/01/11 11:51:14;;;;;;;1.42;0.90;;;;;;;12.10;72.70;99495.63;4996660;28;20287;-83
2023/01/11 11:53:52;;;;;;;1.55;1.00;;;;;;;12.07;72.89;99494.06;4993891;28;20664;-83
2023/01/11 11:56:25;;;;;;;1.92;1.40;;;;;;;12.06;73.00;99491.53;4998423;28;20278;-83
2023/01/11 11:58:52;;;;;;;1.55;1.00;;;;;;;12.03;73.26;99483.84;4999552;28;20251;-84
2023/01/11 12:01:23;;;;;;;1.50;0.80;;;;;;;12.02;73.43;99488.28;5010322;28;20416;-83
2023/01/11 12:03:51;;;;;;;1.20;1.10;;;;;;;12.02;73.44;99484.81;5019866;28;20592;-83
2023/01/11 12:06:25;;;;;;;0.90;0.80;;;;;;;12.04;73.38;99481.09;5018806;28;20737;-83
2023/01/11 12:08:52;;;;;;;1.75;1.08;;;;;;;12.04;73.46;99490.78;5018480;28;20464;-83
2023/01/11 12:11:40;;;;;;;0.82;0.80;;;;;;;12.05;73.50;99493.31;5018880;28;20266;-84
2023/01/11 12:14:09;;;;;;;1.50;0.80;;;;;;;12.05;73.45;99480.16;5019569;28;20194;-83
2023/01/11 12:16:38;;;;;;;1.10;0.82;;;;;;;12.06;73.56;99487.09;5018758;28;20211;-83
2023/01/11 12:19:24;;;;;;;2.17;1.23;;;;;;;12.05;73.51;99487.22;5008410;28;20522;-83
2023/01/11 12:21:51;;;;;;;1.27;1.10;;;;;;;12.07;73.47;99488.78;5018003;28;20179;-83